createdAt,value
2017-07-31T00:00:08.807Z,0
2017-07-31T00:00:34.953Z,0
2017-07-31T00:01:01.061Z,0
2017-07-31T00:01:27.239Z,0
2017-07-31T00:01:53.353Z,0
2017-07-31T00:02:19.485Z,0
2017-07-31T00:02:45.641Z,0
2017-07-31T00:03:11.731Z,0
2017-07-31T00:03:37.907Z,0
2017-07-31T00:04:04.038Z,0
2017-07-31T00:04:30.204Z,0
2017-07-31T00:04:56.382Z,0
2017-07-31T00:05:22.521Z,0
2017-07-31T00:05:48.677Z,0
2017-07-31T00:06:14.832Z,0
2017-07-31T00:06:40.994Z,0
2017-07-31T00:07:07.095Z,0
2017-07-31T00:07:33.230Z,0
2017-07-31T00:07:59.341Z,0
2017-07-31T00:08:25.490Z,0
2017-07-31T00:08:51.626Z,0
2017-07-31T00:09:17.789Z,0
2017-07-31T00:09:43.885Z,0
2017-07-31T00:10:10.033Z,0
2017-07-31T00:10:36.184Z,0
2017-07-31T00:11:02.318Z,0
2017-07-31T00:11:28.456Z,0
2017-07-31T00:11:54.579Z,0
2017-07-31T00:12:20.712Z,0
2017-07-31T00:12:46.852Z,0
2017-07-31T00:13:13.023Z,0
2017-07-31T00:13:39.156Z,0
2017-07-31T00:14:05.273Z,0
2017-07-31T00:14:31.386Z,0
2017-07-31T00:14:57.552Z,0
2017-07-31T00:15:23.647Z,0
2017-07-31T00:15:49.749Z,0
2017-07-31T00:16:15.837Z,0
2017-07-31T00:16:41.930Z,0
2017-07-31T00:17:08.091Z,0
2017-07-31T00:17:34.235Z,0
2017-07-31T00:18:00.375Z,0
2017-07-31T00:18:26.513Z,0
2017-07-31T00:18:52.639Z,0
2017-07-31T00:19:18.802Z,0
2017-07-31T00:19:44.960Z,0
2017-07-31T00:20:11.141Z,0
2017-07-31T00:20:37.237Z,0
2017-07-31T00:21:03.390Z,0
2017-07-31T00:21:29.529Z,0
2017-07-31T00:21:55.694Z,0
2017-07-31T00:22:21.819Z,0
2017-07-31T00:22:47.959Z,0
2017-07-31T00:23:14.090Z,0
2017-07-31T00:23:40.273Z,0
2017-07-31T00:24:06.363Z,0
2017-07-31T00:24:32.514Z,0
2017-07-31T00:24:58.673Z,0
2017-07-31T00:25:24.810Z,0
2017-07-31T00:25:50.959Z,0
2017-07-31T00:26:17.089Z,0
2017-07-31T00:26:43.227Z,0
2017-07-31T00:27:09.386Z,0
2017-07-31T00:27:35.505Z,0
2017-07-31T00:28:01.630Z,0
2017-07-31T00:28:27.790Z,0
2017-07-31T00:28:53.902Z,0
2017-07-31T00:29:20.026Z,0
2017-07-31T00:29:46.161Z,0
2017-07-31T00:30:12.278Z,0
2017-07-31T00:30:38.374Z,0
2017-07-31T00:31:04.509Z,0
2017-07-31T00:31:30.657Z,0
2017-07-31T00:31:56.773Z,0
2017-07-31T00:32:22.953Z,0
2017-07-31T00:32:49.077Z,0
2017-07-31T00:33:15.235Z,0
2017-07-31T00:33:41.404Z,0
2017-07-31T00:34:07.527Z,0
2017-07-31T00:34:33.715Z,0
2017-07-31T00:34:59.832Z,0
2017-07-31T00:35:25.977Z,0
2017-07-31T00:35:52.113Z,0
2017-07-31T00:36:18.234Z,0
2017-07-31T00:36:44.394Z,0
2017-07-31T00:37:10.579Z,0
2017-07-31T00:37:36.679Z,0
2017-07-31T00:38:02.794Z,0
2017-07-31T00:38:28.920Z,0
2017-07-31T00:38:55.027Z,0
2017-07-31T00:39:21.166Z,0
2017-07-31T00:39:47.269Z,0
2017-07-31T00:40:13.399Z,0
2017-07-31T00:40:39.540Z,0
2017-07-31T00:41:05.684Z,0
2017-07-31T00:41:31.846Z,0
2017-07-31T00:41:57.964Z,0
2017-07-31T00:42:24.078Z,0
2017-07-31T00:42:50.217Z,0
2017-07-31T00:43:16.311Z,0
2017-07-31T00:43:42.439Z,0
2017-07-31T00:44:08.558Z,0
2017-07-31T00:44:34.705Z,0
2017-07-31T00:45:00.868Z,0
2017-07-31T00:45:27.014Z,0
2017-07-31T00:45:53.179Z,0
2017-07-31T00:46:19.373Z,0
2017-07-31T00:46:45.523Z,0
2017-07-31T00:47:11.684Z,0
2017-07-31T00:47:37.791Z,0
2017-07-31T00:48:03.891Z,0
2017-07-31T00:48:30.006Z,0
2017-07-31T00:48:56.133Z,0
2017-07-31T00:49:22.276Z,0
2017-07-31T00:49:48.470Z,0
2017-07-31T00:50:14.621Z,0
2017-07-31T00:50:40.712Z,0
2017-07-31T00:51:06.844Z,0
2017-07-31T00:51:32.995Z,0
2017-07-31T00:51:59.086Z,0
2017-07-31T00:52:25.213Z,0
2017-07-31T00:52:51.320Z,0
2017-07-31T00:53:17.406Z,0
2017-07-31T00:53:43.555Z,0
2017-07-31T00:54:09.748Z,0
2017-07-31T00:54:35.918Z,0
2017-07-31T00:55:02.073Z,0
2017-07-31T00:55:28.212Z,0
2017-07-31T00:55:54.394Z,0
2017-07-31T00:56:20.584Z,0
2017-07-31T00:56:46.671Z,0
2017-07-31T00:57:12.822Z,0
2017-07-31T00:57:38.981Z,0
2017-07-31T00:58:05.095Z,0
2017-07-31T00:58:31.242Z,0
2017-07-31T00:58:57.429Z,0
2017-07-31T00:59:23.551Z,0
2017-07-31T00:59:49.638Z,0
2017-07-31T01:00:15.766Z,0
2017-07-31T01:00:41.866Z,0
2017-07-31T01:01:07.999Z,0
2017-07-31T01:01:34.141Z,0
2017-07-31T01:02:00.262Z,0
2017-07-31T01:02:26.369Z,0
2017-07-31T01:02:52.544Z,0
2017-07-31T01:03:18.685Z,0
2017-07-31T01:03:44.849Z,0
2017-07-31T01:04:10.996Z,0
2017-07-31T01:04:37.161Z,0
2017-07-31T01:05:03.291Z,0
2017-07-31T01:05:29.418Z,0
2017-07-31T01:05:55.544Z,0
2017-07-31T01:06:21.694Z,0
2017-07-31T01:06:47.855Z,0
2017-07-31T01:07:13.988Z,0
2017-07-31T01:07:40.112Z,0
2017-07-31T01:08:06.248Z,0
2017-07-31T01:08:32.354Z,0
2017-07-31T01:08:58.479Z,0
2017-07-31T01:09:24.621Z,0
2017-07-31T01:09:50.774Z,0
2017-07-31T01:10:16.937Z,0
2017-07-31T01:10:43.106Z,0
2017-07-31T01:11:09.220Z,0
2017-07-31T01:11:35.363Z,0
2017-07-31T01:12:01.496Z,0
2017-07-31T01:12:27.649Z,0
2017-07-31T01:12:53.769Z,0
2017-07-31T01:13:19.889Z,0
2017-07-31T01:13:46.000Z,0
2017-07-31T01:14:12.137Z,0
2017-07-31T01:14:38.284Z,0
2017-07-31T01:15:04.442Z,0
2017-07-31T01:15:30.532Z,0
2017-07-31T01:15:56.628Z,0
2017-07-31T01:16:22.788Z,0
2017-07-31T01:16:48.883Z,0
2017-07-31T01:17:15.017Z,0
2017-07-31T01:17:41.150Z,0
2017-07-31T01:18:07.299Z,0
2017-07-31T01:18:33.459Z,0
2017-07-31T01:18:59.574Z,0
2017-07-31T01:19:25.695Z,0
2017-07-31T01:19:51.828Z,0
2017-07-31T01:20:17.974Z,0
2017-07-31T01:20:44.089Z,0
2017-07-31T01:21:10.251Z,0
2017-07-31T01:21:36.393Z,0
2017-07-31T01:22:02.515Z,0
2017-07-31T01:22:28.701Z,0
2017-07-31T01:22:54.828Z,0
2017-07-31T01:23:20.943Z,0
2017-07-31T01:23:47.073Z,0
2017-07-31T01:24:13.260Z,0
2017-07-31T01:24:39.398Z,0
2017-07-31T01:25:05.523Z,0
2017-07-31T01:25:31.683Z,0
2017-07-31T01:25:57.774Z,0
2017-07-31T01:26:23.945Z,0
2017-07-31T01:26:50.130Z,0
2017-07-31T01:27:16.246Z,0
2017-07-31T01:27:42.361Z,0
2017-07-31T01:28:08.491Z,0
2017-07-31T01:28:34.591Z,0
2017-07-31T01:29:00.754Z,0
2017-07-31T01:29:26.897Z,0
2017-07-31T01:29:53.040Z,0
2017-07-31T01:30:19.202Z,0
2017-07-31T01:30:45.297Z,0
2017-07-31T01:31:11.439Z,0
2017-07-31T01:31:37.629Z,0
2017-07-31T01:32:03.754Z,0
2017-07-31T01:32:29.870Z,0
2017-07-31T01:32:56.002Z,0
2017-07-31T01:33:22.155Z,0
2017-07-31T01:33:48.281Z,0
2017-07-31T01:34:14.424Z,0
2017-07-31T01:34:40.589Z,0
2017-07-31T01:35:06.753Z,0
2017-07-31T01:35:32.878Z,0
2017-07-31T01:35:58.991Z,0
2017-07-31T01:36:25.123Z,0
2017-07-31T01:36:51.249Z,0
2017-07-31T01:37:17.440Z,0
2017-07-31T01:37:43.589Z,0
2017-07-31T01:38:09.804Z,0
2017-07-31T01:38:35.917Z,0
2017-07-31T01:39:02.016Z,0
2017-07-31T01:39:28.164Z,0
2017-07-31T01:39:54.271Z,0
2017-07-31T01:40:20.369Z,0
2017-07-31T01:40:46.505Z,0
2017-07-31T01:41:12.682Z,0
2017-07-31T01:41:38.870Z,0
2017-07-31T01:42:04.956Z,0
2017-07-31T01:42:31.106Z,0
2017-07-31T01:42:57.211Z,0
2017-07-31T01:43:23.354Z,0
2017-07-31T01:43:49.499Z,0
2017-07-31T01:44:15.659Z,0
2017-07-31T01:44:41.801Z,0
2017-07-31T01:45:07.988Z,0
2017-07-31T01:45:34.099Z,0
2017-07-31T01:46:00.222Z,0
2017-07-31T01:46:26.354Z,0
2017-07-31T01:46:52.471Z,0
2017-07-31T01:47:18.586Z,0
2017-07-31T01:47:44.721Z,0
2017-07-31T01:48:10.842Z,0
2017-07-31T01:48:36.997Z,0
2017-07-31T01:49:03.115Z,0
2017-07-31T01:49:29.266Z,0
2017-07-31T01:49:55.379Z,0
2017-07-31T01:50:21.540Z,0
2017-07-31T01:50:47.636Z,0
2017-07-31T01:51:13.770Z,0
2017-07-31T01:51:39.944Z,0
2017-07-31T01:52:06.084Z,0
2017-07-31T01:52:32.222Z,0
2017-07-31T01:52:58.320Z,0
2017-07-31T01:53:24.433Z,0
2017-07-31T01:53:50.567Z,0
2017-07-31T01:54:16.691Z,0
2017-07-31T01:54:42.806Z,0
2017-07-31T01:55:08.908Z,0
2017-07-31T01:55:35.043Z,0
2017-07-31T01:56:01.159Z,0
2017-07-31T01:56:27.308Z,0
2017-07-31T01:56:53.443Z,0
2017-07-31T01:57:19.603Z,0
2017-07-31T01:57:45.756Z,0
2017-07-31T01:58:11.846Z,0
2017-07-31T01:58:37.950Z,0
2017-07-31T01:59:04.084Z,0
2017-07-31T01:59:30.245Z,0
2017-07-31T01:59:56.395Z,0
2017-07-31T02:00:22.557Z,0
2017-07-31T02:00:48.674Z,0
2017-07-31T02:01:14.792Z,0
2017-07-31T02:01:40.970Z,0
2017-07-31T02:02:07.146Z,0
2017-07-31T02:02:33.249Z,0
2017-07-31T02:02:59.345Z,0
2017-07-31T02:03:25.486Z,0
2017-07-31T02:03:51.646Z,0
2017-07-31T02:04:17.763Z,0
2017-07-31T02:04:43.909Z,0
2017-07-31T02:05:10.047Z,0
2017-07-31T02:05:36.164Z,0
2017-07-31T02:06:02.301Z,0
2017-07-31T02:06:28.492Z,0
2017-07-31T02:06:54.643Z,0
2017-07-31T02:07:20.757Z,0
2017-07-31T02:07:46.863Z,0
2017-07-31T02:08:12.992Z,0
2017-07-31T02:08:39.131Z,0
2017-07-31T02:09:05.260Z,0
2017-07-31T02:09:31.393Z,0
2017-07-31T02:09:57.529Z,0
2017-07-31T02:10:23.653Z,0
2017-07-31T02:10:49.787Z,0
2017-07-31T02:11:15.933Z,0
2017-07-31T02:11:42.076Z,0
2017-07-31T02:12:08.235Z,0
2017-07-31T02:12:34.403Z,0
2017-07-31T02:13:00.541Z,0
2017-07-31T02:13:26.652Z,0
2017-07-31T02:13:52.774Z,0
2017-07-31T02:14:18.932Z,0
2017-07-31T02:14:45.071Z,0
2017-07-31T02:15:11.219Z,0
2017-07-31T02:15:37.379Z,0
2017-07-31T02:16:03.522Z,0
2017-07-31T02:16:29.634Z,0
2017-07-31T02:16:55.796Z,0
2017-07-31T02:17:21.919Z,0
2017-07-31T02:17:48.085Z,0
2017-07-31T02:18:14.240Z,0
2017-07-31T02:18:40.333Z,0
2017-07-31T02:19:06.497Z,0
2017-07-31T02:19:32.647Z,0
2017-07-31T02:19:58.762Z,0
2017-07-31T02:20:24.925Z,0
2017-07-31T02:20:51.048Z,0
2017-07-31T02:21:17.186Z,0
2017-07-31T02:21:43.292Z,0
2017-07-31T02:22:09.474Z,0
2017-07-31T02:22:35.633Z,0
2017-07-31T02:23:01.742Z,0
2017-07-31T02:23:27.847Z,0
2017-07-31T02:23:53.991Z,0
2017-07-31T02:24:20.115Z,0
2017-07-31T02:24:46.253Z,0
2017-07-31T02:25:12.434Z,0
2017-07-31T02:25:38.591Z,0
2017-07-31T02:26:04.702Z,0
2017-07-31T02:26:30.838Z,0
2017-07-31T02:26:57.052Z,0
2017-07-31T02:27:23.186Z,0
2017-07-31T02:27:49.285Z,0
2017-07-31T02:28:15.419Z,0
2017-07-31T02:28:41.513Z,0
2017-07-31T02:29:07.631Z,0
2017-07-31T02:29:33.725Z,0
2017-07-31T02:29:59.852Z,0
2017-07-31T02:30:26.039Z,0
2017-07-31T02:30:52.125Z,0
2017-07-31T02:31:18.300Z,0
2017-07-31T02:31:44.431Z,0
2017-07-31T02:32:10.544Z,0
2017-07-31T02:32:36.690Z,0
2017-07-31T02:33:02.851Z,0
2017-07-31T02:33:28.998Z,0
2017-07-31T02:33:55.137Z,0
2017-07-31T02:34:21.267Z,0
2017-07-31T02:34:47.416Z,0
2017-07-31T02:35:13.542Z,0
2017-07-31T02:35:39.708Z,0
2017-07-31T02:36:05.877Z,0
2017-07-31T02:36:32.010Z,0
2017-07-31T02:36:58.159Z,0
2017-07-31T02:37:24.275Z,0
2017-07-31T02:37:50.441Z,0
2017-07-31T02:38:16.616Z,0
2017-07-31T02:38:42.779Z,0
2017-07-31T02:39:08.966Z,0
2017-07-31T02:39:35.125Z,0
2017-07-31T02:40:01.260Z,0
2017-07-31T02:40:27.491Z,0
2017-07-31T02:40:53.581Z,0
2017-07-31T02:41:19.718Z,0
2017-07-31T02:41:45.917Z,0
2017-07-31T02:42:12.083Z,0
2017-07-31T02:42:38.265Z,0
2017-07-31T02:43:04.504Z,0
2017-07-31T02:43:30.666Z,0
2017-07-31T02:43:56.823Z,0
2017-07-31T02:44:22.955Z,0
2017-07-31T02:44:49.092Z,0
2017-07-31T02:45:15.217Z,0
2017-07-31T02:45:41.377Z,0
2017-07-31T02:46:07.542Z,0
2017-07-31T02:46:33.726Z,0
2017-07-31T02:46:59.916Z,0
2017-07-31T02:47:26.071Z,0
2017-07-31T02:47:52.202Z,0
2017-07-31T02:48:18.336Z,0
2017-07-31T02:48:44.460Z,0
2017-07-31T02:49:10.623Z,0
2017-07-31T02:49:36.770Z,0
2017-07-31T02:50:02.888Z,0
2017-07-31T02:50:35.395Z,0
2017-07-31T02:51:01.609Z,0
2017-07-31T02:51:27.798Z,0
2017-07-31T02:51:53.980Z,0
2017-07-31T02:52:20.216Z,0
2017-07-31T02:52:46.374Z,0
2017-07-31T02:53:12.544Z,0
2017-07-31T02:53:38.713Z,0
2017-07-31T02:54:04.867Z,0
2017-07-31T02:54:31.047Z,0
2017-07-31T02:54:57.210Z,0
2017-07-31T02:55:23.403Z,0
2017-07-31T02:55:49.552Z,0
2017-07-31T02:56:15.722Z,0
2017-07-31T02:56:41.907Z,0
2017-07-31T02:57:08.060Z,0
2017-07-31T02:57:34.204Z,0
2017-07-31T02:58:00.411Z,0
2017-07-31T02:58:26.520Z,0
2017-07-31T02:58:52.679Z,0
2017-07-31T02:59:18.857Z,0
2017-07-31T02:59:45.048Z,0
2017-07-31T03:00:11.207Z,0
2017-07-31T03:00:37.422Z,0
2017-07-31T03:01:03.559Z,0
2017-07-31T03:01:29.677Z,0
2017-07-31T03:01:55.835Z,0
2017-07-31T03:02:21.966Z,0
2017-07-31T03:02:48.088Z,0
2017-07-31T03:03:14.199Z,0
2017-07-31T03:03:40.354Z,0
2017-07-31T03:04:06.567Z,0
2017-07-31T03:04:32.710Z,0
2017-07-31T03:04:58.881Z,0
2017-07-31T03:05:25.109Z,0
2017-07-31T03:05:51.235Z,0
2017-07-31T03:06:17.381Z,0
2017-07-31T03:06:43.539Z,0
2017-07-31T03:07:09.728Z,0
2017-07-31T03:07:35.902Z,0
2017-07-31T03:08:02.062Z,0
2017-07-31T03:08:28.211Z,0
2017-07-31T03:08:54.354Z,4
2017-07-31T03:09:20.462Z,4
2017-07-31T03:09:46.666Z,4
2017-07-31T03:10:12.824Z,4
2017-07-31T03:10:38.959Z,4
2017-07-31T03:11:05.106Z,4
2017-07-31T03:11:31.226Z,4
2017-07-31T03:11:57.340Z,0
2017-07-31T03:12:23.499Z,0
2017-07-31T03:12:49.629Z,0
2017-07-31T03:13:15.743Z,4
2017-07-31T03:13:41.879Z,4
2017-07-31T03:14:08.033Z,4
2017-07-31T03:14:34.158Z,4
2017-07-31T03:15:00.327Z,4
2017-07-31T03:15:26.441Z,4
2017-07-31T03:15:52.579Z,4
2017-07-31T03:16:18.774Z,8
2017-07-31T03:16:44.886Z,8
2017-07-31T03:17:11.054Z,4
2017-07-31T03:17:37.206Z,4
2017-07-31T03:18:03.326Z,8
2017-07-31T03:18:29.434Z,8
2017-07-31T03:18:55.558Z,8
2017-07-31T03:19:21.742Z,8
2017-07-31T03:19:47.884Z,8
2017-07-31T03:20:14.033Z,8
2017-07-31T03:20:40.198Z,8
2017-07-31T03:21:06.327Z,8
2017-07-31T03:21:32.477Z,12
2017-07-31T03:21:58.585Z,8
2017-07-31T03:22:24.759Z,12
2017-07-31T03:22:50.982Z,16
2017-07-31T03:23:17.175Z,12
2017-07-31T03:23:43.295Z,16
2017-07-31T03:24:09.484Z,16
2017-07-31T03:24:35.652Z,20
2017-07-31T03:25:01.766Z,16
2017-07-31T03:25:27.975Z,16
2017-07-31T03:25:54.096Z,20
2017-07-31T03:26:20.257Z,20
2017-07-31T03:26:46.571Z,20
2017-07-31T03:27:12.776Z,24
2017-07-31T03:27:38.901Z,28
2017-07-31T03:28:05.039Z,28
2017-07-31T03:28:31.209Z,32
2017-07-31T03:28:57.366Z,32
2017-07-31T03:29:23.535Z,36
2017-07-31T03:29:49.671Z,40
2017-07-31T03:30:15.863Z,36
2017-07-31T03:30:42.037Z,40
2017-07-31T03:31:08.192Z,44
2017-07-31T03:31:34.364Z,44
2017-07-31T03:32:00.507Z,48
2017-07-31T03:32:26.657Z,52
2017-07-31T03:32:52.869Z,52
2017-07-31T03:33:19.002Z,60
2017-07-31T03:33:45.162Z,60
2017-07-31T03:34:11.304Z,64
2017-07-31T03:34:37.502Z,68
2017-07-31T03:35:03.687Z,72
2017-07-31T03:35:29.835Z,76
2017-07-31T03:35:55.971Z,76
2017-07-31T03:36:22.149Z,84
2017-07-31T03:36:48.371Z,88
2017-07-31T03:37:14.478Z,92
2017-07-31T03:37:40.594Z,96
2017-07-31T03:38:06.721Z,100
2017-07-31T03:38:32.858Z,108
2017-07-31T03:38:59.005Z,112
2017-07-31T03:39:25.220Z,116
2017-07-31T03:39:51.363Z,124
2017-07-31T03:40:17.502Z,128
2017-07-31T03:40:43.693Z,132
2017-07-31T03:41:09.807Z,140
2017-07-31T03:41:35.968Z,148
2017-07-31T03:42:02.151Z,152
2017-07-31T03:42:28.317Z,160
2017-07-31T03:42:54.472Z,168
2017-07-31T03:43:20.609Z,176
2017-07-31T03:43:46.747Z,184
2017-07-31T03:44:12.901Z,188
2017-07-31T03:44:39.049Z,196
2017-07-31T03:45:05.183Z,204
2017-07-31T03:45:31.312Z,216
2017-07-31T03:45:57.455Z,224
2017-07-31T03:46:23.626Z,232
2017-07-31T03:46:49.743Z,240
2017-07-31T03:47:15.901Z,256
2017-07-31T03:47:42.097Z,268
2017-07-31T03:48:08.244Z,280
2017-07-31T03:48:34.355Z,292
2017-07-31T03:49:00.508Z,300
2017-07-31T03:49:26.688Z,308
2017-07-31T03:49:52.853Z,320
2017-07-31T03:50:19.053Z,324
2017-07-31T03:50:45.217Z,336
2017-07-31T03:51:11.349Z,348
2017-07-31T03:51:37.494Z,356
2017-07-31T03:52:03.682Z,368
2017-07-31T03:52:29.875Z,380
2017-07-31T03:52:56.019Z,392
2017-07-31T03:53:22.164Z,404
2017-07-31T03:53:48.287Z,416
2017-07-31T03:54:14.503Z,428
2017-07-31T03:54:40.639Z,444
2017-07-31T03:55:06.780Z,456
2017-07-31T03:55:32.965Z,472
2017-07-31T03:55:59.105Z,488
2017-07-31T03:56:25.222Z,504
2017-07-31T03:56:51.439Z,520
2017-07-31T03:57:17.549Z,532
2017-07-31T03:57:43.719Z,548
2017-07-31T03:58:09.961Z,568
2017-07-31T03:58:36.105Z,584
2017-07-31T03:59:02.316Z,600
2017-07-31T03:59:28.476Z,624
2017-07-31T03:59:54.620Z,640
2017-07-31T04:00:20.807Z,660
2017-07-31T04:00:47.104Z,672
2017-07-31T04:01:13.268Z,692
2017-07-31T04:01:39.395Z,712
2017-07-31T04:02:05.510Z,728
2017-07-31T04:02:31.644Z,752
2017-07-31T04:02:57.793Z,768
2017-07-31T04:03:23.960Z,792
2017-07-31T04:03:50.108Z,808
2017-07-31T04:04:16.285Z,832
2017-07-31T04:04:42.455Z,852
2017-07-31T04:05:08.642Z,868
2017-07-31T04:05:34.825Z,888
2017-07-31T04:06:00.958Z,908
2017-07-31T04:06:27.110Z,932
2017-07-31T04:06:53.262Z,948
2017-07-31T04:07:19.432Z,972
2017-07-31T04:07:45.580Z,992
2017-07-31T04:08:11.706Z,1012
2017-07-31T04:08:37.838Z,1032
2017-07-31T04:09:03.963Z,1060
2017-07-31T04:09:30.149Z,1080
2017-07-31T04:09:56.316Z,1104
2017-07-31T04:10:22.498Z,1128
2017-07-31T04:10:48.606Z,1148
2017-07-31T04:11:14.817Z,1168
2017-07-31T04:11:41.004Z,1188
2017-07-31T04:12:07.224Z,1212
2017-07-31T04:12:33.371Z,1236
2017-07-31T04:12:59.529Z,1260
2017-07-31T04:13:25.756Z,1292
2017-07-31T04:13:51.928Z,1320
2017-07-31T04:14:18.111Z,1348
2017-07-31T04:14:44.255Z,1380
2017-07-31T04:15:10.363Z,1412
2017-07-31T04:15:36.540Z,1448
2017-07-31T04:16:02.715Z,1476
2017-07-31T04:16:28.872Z,1500
2017-07-31T04:16:55.043Z,1528
2017-07-31T04:17:21.215Z,1556
2017-07-31T04:17:47.368Z,1592
2017-07-31T04:18:13.511Z,1628
2017-07-31T04:18:39.675Z,1668
2017-07-31T04:19:05.801Z,1708
2017-07-31T04:19:31.948Z,1752
2017-07-31T04:19:58.109Z,1800
2017-07-31T04:20:24.233Z,1840
2017-07-31T04:20:50.381Z,1880
2017-07-31T04:21:16.550Z,1928
2017-07-31T04:21:42.734Z,1972
2017-07-31T04:22:08.857Z,2020
2017-07-31T04:22:35.071Z,2060
2017-07-31T04:23:01.246Z,2096
2017-07-31T04:23:27.433Z,2128
2017-07-31T04:23:53.568Z,2156
2017-07-31T04:24:19.688Z,2188
2017-07-31T04:24:45.869Z,2196
2017-07-31T04:25:12.034Z,2208
2017-07-31T04:25:38.174Z,2216
2017-07-31T04:26:04.388Z,2240
2017-07-31T04:26:30.566Z,2264
2017-07-31T04:26:56.717Z,2280
2017-07-31T04:27:22.856Z,2304
2017-07-31T04:27:49.002Z,2344
2017-07-31T04:28:15.189Z,2380
2017-07-31T04:28:41.329Z,2408
2017-07-31T04:29:07.472Z,2432
2017-07-31T04:29:33.660Z,2452
2017-07-31T04:29:59.808Z,2476
2017-07-31T04:30:25.943Z,2500
2017-07-31T04:30:52.100Z,2528
2017-07-31T04:31:18.283Z,2552
2017-07-31T04:31:44.536Z,2580
2017-07-31T04:32:10.692Z,2604
2017-07-31T04:32:36.885Z,2628
2017-07-31T04:33:03.106Z,2656
2017-07-31T04:33:29.283Z,2684
2017-07-31T04:33:55.423Z,2712
2017-07-31T04:34:21.577Z,2740
2017-07-31T04:34:47.767Z,2768
2017-07-31T04:35:13.868Z,2792
2017-07-31T04:35:40.025Z,2824
2017-07-31T04:36:06.146Z,2864
2017-07-31T04:36:32.281Z,2904
2017-07-31T04:36:58.426Z,2952
2017-07-31T04:37:24.611Z,2996
2017-07-31T04:37:50.754Z,3028
2017-07-31T04:38:16.878Z,3060
2017-07-31T04:38:43.014Z,3088
2017-07-31T04:39:09.190Z,3120
2017-07-31T04:39:35.444Z,3148
2017-07-31T04:40:01.602Z,3172
2017-07-31T04:40:27.722Z,3188
2017-07-31T04:40:53.937Z,3208
2017-07-31T04:41:20.048Z,3248
2017-07-31T04:41:46.189Z,3284
2017-07-31T04:42:12.348Z,3308
2017-07-31T04:42:38.543Z,3324
2017-07-31T04:43:04.706Z,3336
2017-07-31T04:43:30.864Z,3348
2017-07-31T04:43:56.981Z,3352
2017-07-31T04:44:23.093Z,3372
2017-07-31T04:44:49.246Z,3388
2017-07-31T04:45:15.460Z,3404
2017-07-31T04:45:41.569Z,3440
2017-07-31T04:46:07.755Z,3472
2017-07-31T04:46:33.938Z,3492
2017-07-31T04:47:00.105Z,3496
2017-07-31T04:47:26.280Z,3492
2017-07-31T04:47:52.531Z,3508
2017-07-31T04:48:18.638Z,3536
2017-07-31T04:48:44.787Z,3584
2017-07-31T04:49:10.963Z,3664
2017-07-31T04:49:37.118Z,3732
2017-07-31T04:50:03.277Z,3768
2017-07-31T04:50:29.446Z,3808
2017-07-31T04:50:55.591Z,3848
2017-07-31T04:51:21.808Z,3880
2017-07-31T04:51:47.919Z,3912
2017-07-31T04:52:14.089Z,3956
2017-07-31T04:52:40.268Z,3996
2017-07-31T04:53:06.407Z,4020
2017-07-31T04:53:32.549Z,4044
2017-07-31T04:53:58.705Z,4068
2017-07-31T04:54:24.881Z,4092
2017-07-31T04:54:51.008Z,4116
2017-07-31T04:55:17.202Z,4144
2017-07-31T04:55:43.377Z,4184
2017-07-31T04:56:09.536Z,4224
2017-07-31T04:56:35.766Z,4268
2017-07-31T04:57:01.935Z,4316
2017-07-31T04:57:28.119Z,4360
2017-07-31T04:57:54.300Z,4412
2017-07-31T04:58:20.464Z,4464
2017-07-31T04:58:46.621Z,4516
2017-07-31T04:59:12.802Z,4568
2017-07-31T04:59:38.943Z,4608
2017-07-31T05:00:05.114Z,4656
2017-07-31T05:00:31.274Z,4696
2017-07-31T05:00:57.432Z,4732
2017-07-31T05:01:23.607Z,4760
2017-07-31T05:01:49.778Z,4768
2017-07-31T05:02:15.992Z,4812
2017-07-31T05:02:42.204Z,4848
2017-07-31T05:03:08.339Z,4872
2017-07-31T05:03:34.493Z,4896
2017-07-31T05:04:00.650Z,4924
2017-07-31T05:04:26.787Z,4960
2017-07-31T05:04:52.931Z,5012
2017-07-31T05:05:19.114Z,5068
2017-07-31T05:05:45.252Z,5116
2017-07-31T05:06:11.396Z,5156
2017-07-31T05:06:37.524Z,5196
2017-07-31T05:07:03.638Z,5232
2017-07-31T05:07:29.803Z,5272
2017-07-31T05:07:55.990Z,5308
2017-07-31T05:08:22.135Z,5356
2017-07-31T05:08:48.307Z,5400
2017-07-31T05:09:14.516Z,5452
2017-07-31T05:09:40.665Z,5504
2017-07-31T05:10:06.831Z,5560
2017-07-31T05:10:33.048Z,5628
2017-07-31T05:10:59.205Z,5704
2017-07-31T05:11:25.350Z,5812
2017-07-31T05:11:51.560Z,5928
2017-07-31T05:12:17.728Z,6020
2017-07-31T05:12:43.909Z,6120
2017-07-31T05:13:10.063Z,6228
2017-07-31T05:13:36.259Z,6336
2017-07-31T05:14:02.435Z,6440
2017-07-31T05:14:28.627Z,6560
2017-07-31T05:14:54.787Z,6696
2017-07-31T05:15:20.964Z,6804
2017-07-31T05:15:47.088Z,6912
2017-07-31T05:16:13.199Z,7060
2017-07-31T05:16:39.341Z,7208
2017-07-31T05:17:05.487Z,7332
2017-07-31T05:17:31.610Z,7444
2017-07-31T05:17:57.737Z,7548
2017-07-31T05:18:23.875Z,7636
2017-07-31T05:18:50.027Z,7700
2017-07-31T05:19:16.211Z,7736
2017-07-31T05:19:42.383Z,7752
2017-07-31T05:20:08.524Z,7728
2017-07-31T05:20:34.683Z,7688
2017-07-31T05:21:00.830Z,7640
2017-07-31T05:21:26.965Z,7568
2017-07-31T05:21:53.126Z,7492
2017-07-31T05:22:19.307Z,7428
2017-07-31T05:22:45.431Z,7332
2017-07-31T05:23:11.567Z,7180
2017-07-31T05:23:37.743Z,6996
2017-07-31T05:24:03.895Z,6872
2017-07-31T05:24:30.010Z,6748
2017-07-31T05:24:56.118Z,6692
2017-07-31T05:25:22.247Z,6480
2017-07-31T05:25:48.423Z,6340
2017-07-31T05:26:14.532Z,6188
2017-07-31T05:26:40.685Z,6076
2017-07-31T05:27:06.835Z,6028
2017-07-31T05:27:33.056Z,6048
2017-07-31T05:27:59.258Z,6044
2017-07-31T05:28:25.427Z,5984
2017-07-31T05:28:51.590Z,5976
2017-07-31T05:29:17.765Z,5932
2017-07-31T05:29:43.873Z,5864
2017-07-31T05:30:10.059Z,5844
2017-07-31T05:30:36.210Z,5952
2017-07-31T05:31:02.376Z,6084
2017-07-31T05:31:28.584Z,6140
2017-07-31T05:31:54.773Z,6272
2017-07-31T05:32:20.996Z,6364
2017-07-31T05:32:47.169Z,6448
2017-07-31T05:33:13.321Z,6604
2017-07-31T05:33:39.520Z,6716
2017-07-31T05:34:05.674Z,6924
2017-07-31T05:34:31.782Z,7196
2017-07-31T05:34:57.964Z,7452
2017-07-31T05:35:24.088Z,7676
2017-07-31T05:35:50.247Z,7888
2017-07-31T05:36:16.398Z,8092
2017-07-31T05:36:42.550Z,8252
2017-07-31T05:37:08.692Z,8392
2017-07-31T05:37:34.862Z,8504
2017-07-31T05:38:01.057Z,8624
2017-07-31T05:38:27.220Z,8764
2017-07-31T05:38:53.356Z,8860
2017-07-31T05:39:19.508Z,8904
2017-07-31T05:39:45.687Z,8940
2017-07-31T05:40:11.845Z,8944
2017-07-31T05:40:38.014Z,8920
2017-07-31T05:41:04.128Z,8864
2017-07-31T05:41:30.287Z,8772
2017-07-31T05:41:56.402Z,8644
2017-07-31T05:42:22.567Z,8516
2017-07-31T05:42:48.730Z,8360
2017-07-31T05:43:14.912Z,8124
2017-07-31T05:43:41.082Z,7908
2017-07-31T05:44:07.268Z,7664
2017-07-31T05:44:33.453Z,7484
2017-07-31T05:44:59.571Z,7248
2017-07-31T05:45:25.715Z,7008
2017-07-31T05:45:51.852Z,6640
2017-07-31T05:46:18.043Z,6536
2017-07-31T05:46:44.187Z,6624
2017-07-31T05:47:10.353Z,6788
2017-07-31T05:47:36.513Z,7120
2017-07-31T05:48:02.694Z,7584
2017-07-31T05:48:28.804Z,7812
2017-07-31T05:48:54.973Z,8012
2017-07-31T05:49:21.136Z,8160
2017-07-31T05:49:47.295Z,8216
2017-07-31T05:50:13.470Z,8268
2017-07-31T05:50:39.632Z,8404
2017-07-31T05:51:05.827Z,8432
2017-07-31T05:51:32.026Z,8372
2017-07-31T05:51:58.150Z,8268
2017-07-31T05:52:24.299Z,8252
2017-07-31T05:52:50.436Z,8192
2017-07-31T05:53:16.598Z,8148
2017-07-31T05:53:42.715Z,8056
2017-07-31T05:54:08.883Z,7944
2017-07-31T05:54:35.101Z,7880
2017-07-31T05:55:01.278Z,7832
2017-07-31T05:55:27.385Z,7856
2017-07-31T05:55:53.530Z,7868
2017-07-31T05:56:19.670Z,7736
2017-07-31T05:56:45.825Z,7748
2017-07-31T05:57:11.975Z,7836
2017-07-31T05:57:38.141Z,7972
2017-07-31T05:58:04.302Z,8144
2017-07-31T05:58:30.482Z,8312
2017-07-31T05:58:56.620Z,8392
2017-07-31T05:59:22.794Z,8472
2017-07-31T05:59:48.958Z,8596
2017-07-31T06:00:15.127Z,8740
2017-07-31T06:00:41.360Z,8892
2017-07-31T06:01:07.520Z,9068
2017-07-31T06:01:33.752Z,9248
2017-07-31T06:01:59.904Z,9436
2017-07-31T06:02:26.015Z,9624
2017-07-31T06:02:52.165Z,9748
2017-07-31T06:03:18.353Z,9832
2017-07-31T06:03:44.522Z,9836
2017-07-31T06:04:10.642Z,9740
2017-07-31T06:04:36.834Z,9932
2017-07-31T06:05:02.974Z,9908
2017-07-31T06:05:29.151Z,9876
2017-07-31T06:05:55.275Z,9852
2017-07-31T06:06:21.389Z,9752
2017-07-31T06:06:47.556Z,9628
2017-07-31T06:07:13.709Z,9460
2017-07-31T06:07:39.829Z,9384
2017-07-31T06:08:05.947Z,9392
2017-07-31T06:08:32.118Z,9236
2017-07-31T06:08:58.319Z,9108
2017-07-31T06:09:24.469Z,9060
2017-07-31T06:09:50.640Z,8948
2017-07-31T06:10:16.836Z,8788